createdAt,value
2022-10-24T00:00:44.747Z,100
2022-10-24T00:01:46.335Z,100
2022-10-24T00:02:48.131Z,100
2022-10-24T00:03:49.809Z,100
2022-10-24T00:04:51.535Z,100
2022-10-24T00:05:53.283Z,100
2022-10-24T00:06:55.012Z,100
2022-10-24T00:07:56.745Z,100
2022-10-24T00:08:58.518Z,100
2022-10-24T00:10:00.214Z,100
2022-10-24T00:11:01.951Z,100
2022-10-24T00:12:03.695Z,100
2022-10-24T00:13:05.424Z,100
2022-10-24T00:14:07.150Z,100
2022-10-24T00:15:08.896Z,100
2022-10-24T00:16:10.648Z,100
2022-10-24T00:17:12.378Z,100
2022-10-24T00:18:14.106Z,100
2022-10-24T00:19:15.843Z,100
2022-10-24T00:20:17.579Z,100
2022-10-24T00:21:19.310Z,100
2022-10-24T00:22:21.043Z,100
2022-10-24T00:23:22.798Z,100
2022-10-24T00:24:24.515Z,100
2022-10-24T00:25:26.255Z,100
2022-10-24T00:26:27.976Z,100
2022-10-24T00:27:29.942Z,100
2022-10-24T00:28:31.455Z,100
2022-10-24T00:29:33.204Z,100
2022-10-24T00:30:34.932Z,100
2022-10-24T00:31:36.650Z,100
2022-10-24T00:32:38.382Z,100
2022-10-24T00:33:40.131Z,100
2022-10-24T00:34:41.855Z,100
2022-10-24T00:35:43.602Z,100
2022-10-24T00:36:45.332Z,100
2022-10-24T00:37:47.519Z,100
2022-10-24T00:38:48.814Z,100
2022-10-24T00:39:50.536Z,100
2022-10-24T00:40:52.276Z,100
2022-10-24T00:41:54.001Z,100
2022-10-24T00:42:55.743Z,100
2022-10-24T00:43:57.480Z,100
2022-10-24T00:44:59.206Z,100
2022-10-24T00:46:00.957Z,100
2022-10-24T00:47:02.689Z,100
2022-10-24T00:48:04.419Z,100
2022-10-24T00:49:06.149Z,100
2022-10-24T00:50:07.895Z,100
2022-10-24T00:51:09.616Z,100
2022-10-24T00:52:11.416Z,100
2022-10-24T00:53:13.136Z,100
2022-10-24T00:54:14.832Z,100
2022-10-24T00:55:16.566Z,100
2022-10-24T00:56:18.290Z,100
2022-10-24T00:57:20.036Z,100
2022-10-24T00:58:21.755Z,100
2022-10-24T00:59:23.507Z,100
2022-10-24T01:00:25.326Z,100
2022-10-24T01:01:27.022Z,100
2022-10-24T01:02:28.702Z,100
2022-10-24T01:03:30.444Z,100
2022-10-24T01:04:32.207Z,100
2022-10-24T01:05:33.919Z,100
2022-10-24T01:06:35.651Z,100
2022-10-24T01:07:37.437Z,100
2022-10-24T01:08:39.127Z,100
2022-10-24T01:09:40.840Z,100
2022-10-24T01:10:42.603Z,100
2022-10-24T01:11:44.330Z,100
2022-10-24T01:12:46.475Z,100
2022-10-24T01:13:47.804Z,100
2022-10-24T01:14:49.529Z,100
2022-10-24T01:15:51.266Z,100
2022-10-24T01:16:52.987Z,100
2022-10-24T01:17:54.737Z,100
2022-10-24T01:18:56.483Z,100
2022-10-24T01:19:58.199Z,100
2022-10-24T01:20:59.955Z,100
2022-10-24T01:22:01.674Z,100
2022-10-24T01:23:03.416Z,100
2022-10-24T01:24:05.146Z,100
2022-10-24T01:25:06.880Z,100
2022-10-24T01:26:08.615Z,100
2022-10-24T01:27:10.404Z,100
2022-10-24T01:28:12.079Z,100
2022-10-24T01:29:13.821Z,100
2022-10-24T01:30:15.549Z,100
2022-10-24T01:31:17.298Z,100
2022-10-24T01:32:19.021Z,100
2022-10-24T01:33:20.762Z,100
2022-10-24T01:34:22.494Z,100
2022-10-24T01:35:24.266Z,100
2022-10-24T01:36:25.971Z,100
2022-10-24T01:37:27.696Z,100
2022-10-24T01:38:29.426Z,100
2022-10-24T01:39:31.172Z,100
2022-10-24T01:40:32.919Z,100
2022-10-24T01:41:34.641Z,100
2022-10-24T01:42:36.381Z,100
2022-10-24T01:43:38.116Z,100
2022-10-24T01:44:39.847Z,100
2022-10-24T01:45:41.589Z,100
2022-10-24T01:46:43.307Z,100
2022-10-24T01:47:45.301Z,100
2022-10-24T01:48:46.791Z,100
2022-10-24T01:49:48.517Z,100
2022-10-24T01:50:50.257Z,100
2022-10-24T01:51:51.991Z,100
2022-10-24T01:52:53.722Z,100
2022-10-24T01:53:55.463Z,100
2022-10-24T01:54:57.195Z,100
2022-10-24T01:55:58.924Z,100
2022-10-24T01:57:00.648Z,100
2022-10-24T01:58:02.379Z,100
2022-10-24T01:59:04.120Z,100
2022-10-24T02:00:05.887Z,100
2022-10-24T02:01:07.679Z,100
2022-10-24T02:02:09.347Z,100
2022-10-24T02:03:11.062Z,100
2022-10-24T02:04:12.818Z,100
2022-10-24T02:05:14.549Z,100
2022-10-24T02:06:16.288Z,100
2022-10-24T02:07:18.002Z,100
2022-10-24T02:08:19.743Z,100
2022-10-24T02:09:21.468Z,100
2022-10-24T02:10:23.228Z,100
2022-10-24T02:11:24.952Z,100
2022-10-24T02:12:26.685Z,100
2022-10-24T02:13:28.422Z,100
2022-10-24T02:14:30.158Z,100
2022-10-24T02:15:31.900Z,100
2022-10-24T02:16:33.622Z,100
2022-10-24T02:17:35.367Z,100
2022-10-24T02:18:37.109Z,100
2022-10-24T02:19:38.831Z,100
2022-10-24T02:20:40.572Z,100
2022-10-24T02:21:42.302Z,100
2022-10-24T02:22:44.032Z,100
2022-10-24T02:23:45.762Z,100
2022-10-24T02:24:47.496Z,100
2022-10-24T02:25:49.249Z,100
2022-10-24T02:26:50.981Z,100
2022-10-24T02:27:52.709Z,100
2022-10-24T02:28:54.433Z,100
2022-10-24T02:29:56.176Z,100
2022-10-24T02:30:57.928Z,100
2022-10-24T02:31:59.656Z,100
2022-10-24T02:33:01.421Z,100
2022-10-24T02:34:03.226Z,100
2022-10-24T02:35:04.878Z,100
2022-10-24T02:36:06.615Z,100
2022-10-24T02:37:08.346Z,100
2022-10-24T02:38:10.105Z,100
2022-10-24T02:39:11.800Z,100
2022-10-24T02:40:13.536Z,100
2022-10-24T02:41:15.262Z,100
2022-10-24T02:42:17.137Z,100
2022-10-24T02:43:18.738Z,100
2022-10-24T02:44:20.690Z,100
2022-10-24T02:45:22.213Z,100
2022-10-24T02:46:23.942Z,100
2022-10-24T02:47:25.694Z,100
2022-10-24T02:48:27.425Z,100
2022-10-24T02:49:29.166Z,100
2022-10-24T02:50:30.885Z,100
2022-10-24T02:51:32.610Z,100
2022-10-24T02:52:34.346Z,100
2022-10-24T02:53:36.077Z,100
2022-10-24T02:54:37.826Z,100
2022-10-24T02:55:39.567Z,100
2022-10-24T02:56:41.286Z,100
2022-10-24T02:57:43.010Z,100
2022-10-24T02:58:44.749Z,100
2022-10-24T02:59:46.487Z,100
2022-10-24T03:00:48.315Z,100
2022-10-24T03:01:50.016Z,100
2022-10-24T03:02:51.694Z,100
2022-10-24T03:03:53.418Z,100
2022-10-24T03:04:55.161Z,100
2022-10-24T03:05:56.901Z,100
2022-10-24T03:06:58.641Z,100
2022-10-24T03:08:00.372Z,100
2022-10-24T03:09:02.112Z,100
2022-10-24T03:10:03.834Z,100
2022-10-24T03:11:05.578Z,100
2022-10-24T03:12:07.298Z,100
2022-10-24T03:13:09.038Z,100
2022-10-24T03:14:10.762Z,100
2022-10-24T03:15:12.489Z,100
2022-10-24T03:16:14.464Z,100
2022-10-24T03:17:15.973Z,100
2022-10-24T03:18:17.698Z,100
2022-10-24T03:19:19.450Z,100
2022-10-24T03:20:21.188Z,100
2022-10-24T03:21:22.916Z,100
2022-10-24T03:22:28.669Z,100
2022-10-24T03:23:26.391Z,100
2022-10-24T03:24:43.295Z,100
2022-10-24T03:25:29.855Z,100
2022-10-24T03:26:31.595Z,100
2022-10-24T03:27:33.316Z,100
2022-10-24T03:28:35.064Z,100
2022-10-24T03:29:36.785Z,100
2022-10-24T03:30:38.529Z,100
2022-10-24T03:31:40.254Z,100
2022-10-24T03:32:42.150Z,100
2022-10-24T03:33:43.749Z,100
2022-10-24T03:34:45.465Z,100
2022-10-24T03:35:47.211Z,100
2022-10-24T03:36:48.990Z,100
2022-10-24T03:37:50.681Z,100
2022-10-24T03:38:52.402Z,100
2022-10-24T03:39:54.159Z,100
2022-10-24T03:40:55.873Z,100
2022-10-24T03:41:57.602Z,100
2022-10-24T03:42:59.327Z,100
2022-10-24T03:44:01.071Z,100
2022-10-24T03:45:02.812Z,100
2022-10-24T03:46:04.555Z,100
2022-10-24T03:47:06.273Z,100
2022-10-24T03:48:08.021Z,100
2022-10-24T03:49:09.746Z,100
2022-10-24T03:50:11.522Z,100
2022-10-24T03:51:13.224Z,100
2022-10-24T03:52:14.955Z,100
2022-10-24T03:53:16.687Z,100
2022-10-24T03:54:18.414Z,100
2022-10-24T03:55:20.161Z,100
2022-10-24T03:56:21.898Z,100
2022-10-24T03:57:23.625Z,100
2022-10-24T03:58:25.361Z,100
2022-10-24T03:59:27.096Z,100
2022-10-24T04:00:28.837Z,100
2022-10-24T04:01:30.697Z,100
2022-10-24T04:02:32.298Z,100
2022-10-24T04:03:34.039Z,100
2022-10-24T04:04:35.763Z,100
2022-10-24T04:06:39.230Z,100
2022-10-24T04:07:40.962Z,100
2022-10-24T04:08:42.695Z,100
2022-10-24T04:09:44.436Z,100
2022-10-24T04:10:46.180Z,100
2022-10-24T04:11:47.900Z,100
2022-10-24T04:12:49.645Z,100
2022-10-24T04:13:51.417Z,100
2022-10-24T04:14:53.139Z,100
2022-10-24T04:15:54.854Z,100
2022-10-24T04:16:56.581Z,100
2022-10-24T04:17:58.319Z,100
2022-10-24T04:19:00.051Z,100
2022-10-24T04:20:01.808Z,100
2022-10-24T04:21:03.558Z,100
2022-10-24T04:22:05.250Z,100
2022-10-24T04:23:06.982Z,100
2022-10-24T04:24:08.717Z,100
2022-10-24T04:25:10.454Z,100
2022-10-24T04:26:12.192Z,100
2022-10-24T04:27:13.919Z,100
2022-10-24T04:28:15.666Z,100
2022-10-24T04:29:17.399Z,100
2022-10-24T04:30:19.133Z,100
2022-10-24T04:31:23.483Z,100
2022-10-24T04:32:22.601Z,100
2022-10-24T04:33:24.326Z,100
2022-10-24T04:34:26.068Z,100
2022-10-24T04:35:27.831Z,100
2022-10-24T04:36:29.557Z,100
2022-10-24T04:37:31.273Z,100
2022-10-24T04:38:33.615Z,100
2022-10-24T04:39:34.754Z,100
2022-10-24T04:40:36.495Z,100
2022-10-24T04:41:38.204Z,100
2022-10-24T04:42:39.966Z,100
2022-10-24T04:43:41.703Z,100
2022-10-24T04:44:43.435Z,100
2022-10-24T04:45:45.171Z,100
2022-10-24T04:46:50.603Z,100
2022-10-24T04:47:48.622Z,100
2022-10-24T04:48:50.367Z,100
2022-10-24T04:49:52.101Z,100
2022-10-24T04:50:53.843Z,100
2022-10-24T04:51:55.569Z,100
2022-10-24T04:52:57.292Z,100
2022-10-24T04:53:59.039Z,100
2022-10-24T04:55:00.769Z,100
2022-10-24T04:56:02.523Z,100
2022-10-24T04:57:04.254Z,100
2022-10-24T04:58:05.982Z,100
2022-10-24T04:59:07.732Z,100
2022-10-24T05:00:09.457Z,100
2022-10-24T05:01:11.269Z,100
2022-10-24T05:02:12.990Z,100
2022-10-24T05:03:14.675Z,100
2022-10-24T05:04:16.392Z,100
2022-10-24T05:05:18.122Z,100
2022-10-24T05:06:19.863Z,100
2022-10-24T05:07:21.617Z,100
2022-10-24T05:08:23.330Z,100
2022-10-24T05:09:25.053Z,100
2022-10-24T05:10:26.798Z,100
2022-10-24T05:11:28.523Z,100
2022-10-24T05:12:30.256Z,100
2022-10-24T05:13:35.850Z,100
2022-10-24T05:14:33.738Z,100
2022-10-24T05:15:35.478Z,100
2022-10-24T05:16:37.203Z,100
2022-10-24T05:17:38.952Z,100
2022-10-24T05:18:40.684Z,100
2022-10-24T05:19:42.427Z,100
2022-10-24T05:20:44.138Z,100
2022-10-24T05:21:45.890Z,100
2022-10-24T05:22:47.805Z,100
2022-10-24T05:23:49.358Z,100
2022-10-24T05:24:51.090Z,100
2022-10-24T05:25:52.832Z,100
2022-10-24T05:26:54.554Z,100
2022-10-24T05:27:56.304Z,100
2022-10-24T05:28:58.136Z,100
2022-10-24T05:29:59.769Z,100
2022-10-24T05:31:01.513Z,100
2022-10-24T05:32:03.252Z,100
2022-10-24T05:33:04.973Z,100
2022-10-24T05:34:06.706Z,100
2022-10-24T05:35:08.451Z,100
2022-10-24T05:36:10.198Z,100
2022-10-24T05:37:11.905Z,100
2022-10-24T05:38:13.651Z,100
2022-10-24T05:39:15.386Z,100
2022-10-24T05:40:17.135Z,100
2022-10-24T05:41:18.858Z,100
2022-10-24T05:42:20.590Z,100
2022-10-24T05:43:22.318Z,100
2022-10-24T05:44:24.065Z,100
2022-10-24T05:45:25.785Z,100
2022-10-24T05:46:27.525Z,100
2022-10-24T05:47:29.435Z,100
2022-10-24T05:48:30.989Z,100
2022-10-24T05:49:32.724Z,100
2022-10-24T05:50:34.477Z,100
2022-10-24T05:51:36.189Z,100
2022-10-24T05:52:37.920Z,100
2022-10-24T05:53:39.663Z,100
2022-10-24T05:54:55.373Z,100
2022-10-24T05:55:43.137Z,100
2022-10-24T05:56:44.875Z,100
2022-10-24T06:00:28.834Z,100
2022-10-24T06:01:37.790Z,100
2022-10-24T06:02:39.965Z,100
2022-10-24T06:03:41.455Z,100
2022-10-24T06:04:43.186Z,100
2022-10-24T06:05:44.927Z,100
2022-10-24T06:06:46.652Z,100
2022-10-24T06:07:48.914Z,100
2022-10-24T06:08:50.133Z,100
2022-10-24T06:09:51.886Z,100
2022-10-24T06:10:53.586Z,100
2022-10-24T06:11:55.321Z,100
2022-10-24T06:12:57.054Z,100
2022-10-24T06:13:58.793Z,100
2022-10-24T06:15:00.553Z,100
2022-10-24T06:16:02.257Z,100
2022-10-24T06:17:04.036Z,100
2022-10-24T06:18:05.731Z,100
2022-10-24T06:19:07.478Z,100
2022-10-24T06:20:09.205Z,100
2022-10-24T06:21:10.939Z,100
2022-10-24T06:22:12.679Z,100
2022-10-24T06:23:14.391Z,100
2022-10-24T06:24:16.133Z,100
2022-10-24T06:25:17.868Z,100
2022-10-24T06:26:23.067Z,100
2022-10-24T06:27:21.357Z,100
2022-10-24T06:28:23.145Z,100
2022-10-24T06:29:24.809Z,100
2022-10-24T06:30:26.553Z,100
2022-10-24T06:31:28.274Z,100
2022-10-24T06:32:30.019Z,100
2022-10-24T06:33:31.796Z,100
2022-10-24T06:34:33.503Z,100
2022-10-24T06:35:35.233Z,100
2022-10-24T06:36:37.029Z,100
2022-10-24T06:37:38.695Z,100
2022-10-24T06:38:40.429Z,100
2022-10-24T06:39:42.167Z,100
2022-10-24T06:40:43.895Z,100
2022-10-24T06:41:45.633Z,100
2022-10-24T06:42:47.372Z,100
2022-10-24T06:43:49.121Z,100
2022-10-24T06:44:50.958Z,100
2022-10-24T06:45:52.567Z,100
2022-10-24T06:46:54.319Z,100
2022-10-24T06:47:56.401Z,100
2022-10-24T06:48:57.783Z,100
2022-10-24T06:49:59.511Z,100
2022-10-24T06:51:01.257Z,100
2022-10-24T06:52:02.980Z,100
2022-10-24T06:53:04.844Z,100
2022-10-24T06:54:06.452Z,100
2022-10-24T06:55:08.198Z,100
2022-10-24T06:56:09.929Z,100
2022-10-24T06:57:11.655Z,100
2022-10-24T06:58:13.395Z,100
2022-10-24T06:59:15.131Z,100
2022-10-24T07:00:17.006Z,100
2022-10-24T07:01:18.790Z,100
2022-10-24T07:02:20.434Z,100
2022-10-24T07:03:22.093Z,100
2022-10-24T07:04:23.800Z,100
2022-10-24T07:05:25.542Z,100
2022-10-24T07:06:27.278Z,100
2022-10-24T07:07:29.031Z,100
2022-10-24T07:08:30.750Z,100
2022-10-24T07:09:32.479Z,100
2022-10-24T07:10:34.295Z,100
2022-10-24T07:11:35.942Z,100
2022-10-24T07:12:37.690Z,100
2022-10-24T07:13:39.427Z,100
2022-10-24T07:14:41.164Z,100
2022-10-24T07:15:42.896Z,100
2022-10-24T07:16:44.624Z,100
2022-10-24T07:17:46.356Z,100
2022-10-24T07:18:48.089Z,100
2022-10-24T07:19:49.857Z,100
2022-10-24T07:20:51.653Z,100
2022-10-24T07:22:47.498Z,100
2022-10-24T07:24:16.876Z,100
2022-10-24T07:25:17.182Z,100
2022-10-24T07:26:18.965Z,100
2022-10-24T07:27:20.619Z,100
2022-10-24T07:28:22.423Z,100
2022-10-24T07:29:24.087Z,100
2022-10-24T07:30:26.156Z,100
2022-10-24T07:31:30.407Z,100
2022-10-24T07:32:32.133Z,100
2022-10-24T07:33:33.922Z,100
2022-10-24T07:34:35.621Z,100
2022-10-24T07:35:37.357Z,100
2022-10-24T07:36:41.436Z,100
2022-10-24T07:37:51.571Z,100
2022-10-24T07:39:08.235Z,100
2022-10-24T07:40:10.082Z,100
2022-10-24T07:41:11.804Z,100
2022-10-24T07:42:13.536Z,100
2022-10-24T07:43:15.262Z,100
2022-10-24T07:44:17.007Z,100
2022-10-24T07:45:18.871Z,100
2022-10-24T07:46:25.172Z,100
2022-10-24T07:47:31.587Z,100
2022-10-24T07:48:32.440Z,100
2022-10-24T07:49:43.153Z,100
2022-10-24T07:50:50.850Z,100
2022-10-24T07:51:51.793Z,100
2022-10-24T07:52:53.531Z,100
2022-10-24T07:53:55.322Z,100
2022-10-24T07:54:57.010Z,100
2022-10-24T07:55:58.760Z,100
2022-10-24T07:57:00.494Z,100
2022-10-24T07:58:02.224Z,100
2022-10-24T07:59:09.205Z,100
2022-10-24T08:00:05.713Z,100
2022-10-24T08:01:07.515Z,100
2022-10-24T08:02:09.167Z,100
2022-10-24T08:03:10.911Z,100
2022-10-24T08:04:12.679Z,100
2022-10-24T08:05:17.056Z,100
2022-10-24T08:06:16.113Z,100
2022-10-24T08:07:17.831Z,100
2022-10-24T08:08:34.858Z,100
2022-10-24T08:09:21.318Z,100
2022-10-24T08:10:23.206Z,100
2022-10-24T08:11:24.786Z,100
2022-10-24T08:12:26.512Z,100
2022-10-24T08:13:28.246Z,100
2022-10-24T08:14:29.987Z,100
2022-10-24T08:15:31.725Z,100
2022-10-24T08:16:33.449Z,100
2022-10-24T08:17:35.184Z,100
2022-10-24T08:18:39.642Z,100
2022-10-24T08:19:39.537Z,100
2022-10-24T08:20:40.417Z,100
2022-10-24T08:21:42.120Z,100
2022-10-24T08:22:44.235Z,100
2022-10-24T08:23:45.601Z,100
2022-10-24T08:24:47.400Z,100
2022-10-24T08:25:49.060Z,100
2022-10-24T08:26:50.784Z,100
2022-10-24T08:27:52.532Z,100
2022-10-24T08:28:54.269Z,100
2022-10-24T08:29:56.003Z,100
2022-10-24T08:30:57.740Z,100
2022-10-24T08:31:59.468Z,100
2022-10-24T08:33:01.193Z,100
2022-10-24T08:34:02.947Z,100
2022-10-24T08:35:04.664Z,100
2022-10-24T08:36:06.455Z,100
2022-10-24T08:37:08.214Z,100
2022-10-24T08:38:11.333Z,100
2022-10-24T08:39:11.614Z,100
2022-10-24T08:40:13.344Z,100
2022-10-24T08:41:15.079Z,100
2022-10-24T08:42:16.825Z,100
2022-10-24T08:43:18.554Z,100
2022-10-24T08:44:20.281Z,100
2022-10-24T08:45:22.012Z,100
2022-10-24T08:46:23.753Z,100
2022-10-24T08:47:25.579Z,100
2022-10-24T08:48:27.206Z,100
2022-10-24T08:49:28.961Z,100
2022-10-24T08:50:30.687Z,100
2022-10-24T08:51:32.430Z,100
2022-10-24T08:52:34.164Z,100
2022-10-24T08:53:35.876Z,100
2022-10-24T08:54:37.632Z,100
2022-10-24T08:55:49.446Z,100
2022-10-24T08:56:41.085Z,100
2022-10-24T08:57:42.844Z,100
2022-10-24T08:58:44.560Z,100
2022-10-24T08:59:46.283Z,100
2022-10-24T09:00:48.023Z,100
2022-10-24T09:01:49.823Z,100
2022-10-24T09:02:51.905Z,100
2022-10-24T09:03:57.253Z,100
2022-10-24T09:04:54.973Z,100
2022-10-24T09:05:56.692Z,100
2022-10-24T09:06:58.464Z,100
2022-10-24T09:08:00.175Z,100
2022-10-24T09:09:01.908Z,100
2022-10-24T09:10:03.660Z,100
2022-10-24T09:11:05.377Z,100
2022-10-24T09:12:07.114Z,100
2022-10-24T09:13:08.841Z,100
2022-10-24T09:14:10.584Z,100
2022-10-24T09:15:12.336Z,100
2022-10-24T09:16:14.051Z,100
2022-10-24T09:17:15.831Z,100
2022-10-24T09:18:17.525Z,100
2022-10-24T09:19:19.249Z,100
2022-10-24T09:20:20.986Z,100
2022-10-24T09:21:22.717Z,100
2022-10-24T09:22:24.455Z,100
2022-10-24T09:23:26.184Z,100
2022-10-24T09:24:27.929Z,100
2022-10-24T09:25:29.664Z,100
2022-10-24T09:26:31.404Z,100
2022-10-24T09:27:33.139Z,100
2022-10-24T09:28:34.865Z,100
2022-10-24T09:29:36.604Z,100
2022-10-24T09:30:38.342Z,100
2022-10-24T09:31:40.090Z,100
2022-10-24T09:32:41.832Z,100
2022-10-24T09:33:43.560Z,100
2022-10-24T09:34:45.270Z,100
2022-10-24T09:35:47.014Z,100
2022-10-24T09:36:48.745Z,100
2022-10-24T09:37:50.731Z,100
2022-10-24T09:38:52.242Z,100
2022-10-24T09:39:53.953Z,100
2022-10-24T09:40:55.679Z,100
2022-10-24T09:41:57.461Z,100
2022-10-24T09:42:59.167Z,100
2022-10-24T09:44:00.917Z,100
2022-10-24T09:45:02.636Z,100
2022-10-24T09:46:04.378Z,100
2022-10-24T09:47:06.276Z,100
2022-10-24T09:48:07.837Z,100
2022-10-24T09:49:09.569Z,100
2022-10-24T09:50:11.304Z,100
2022-10-24T09:51:13.048Z,100
2022-10-24T09:52:14.785Z,100
2022-10-24T09:53:16.531Z,100
2022-10-24T09:54:18.251Z,100
2022-10-24T09:55:20.042Z,100
2022-10-24T09:56:21.703Z,100
2022-10-24T09:57:24.153Z,100
2022-10-24T09:58:25.185Z,100
2022-10-24T09:59:26.931Z,100
2022-10-24T10:00:28.636Z,100
2022-10-24T10:01:30.538Z,100
2022-10-24T10:02:32.124Z,100
2022-10-24T10:03:33.873Z,100
2022-10-24T10:04:35.587Z,100
2022-10-24T10:05:37.334Z,100
2022-10-24T10:06:39.060Z,100
2022-10-24T10:07:40.792Z,100
2022-10-24T10:08:42.544Z,100
2022-10-24T10:09:44.272Z,100
2022-10-24T10:10:46.004Z,100
2022-10-24T10:11:54.764Z,100
2022-10-24T10:12:49.470Z,100
2022-10-24T10:13:51.238Z,100
2022-10-24T10:14:52.948Z,100
2022-10-24T10:15:54.674Z,100
2022-10-24T10:17:58.141Z,100
2022-10-24T10:18:59.888Z,100
2022-10-24T10:20:01.614Z,100
2022-10-24T10:21:03.346Z,100
2022-10-24T10:22:05.077Z,100
2022-10-24T10:23:06.824Z,100
2022-10-24T10:24:08.563Z,100
2022-10-24T10:25:10.358Z,100
2022-10-24T10:26:12.029Z,100
2022-10-24T10:27:13.769Z,100
2022-10-24T10:28:15.497Z,100
2022-10-24T10:29:17.235Z,100
2022-10-24T10:30:18.957Z,100
2022-10-24T10:31:20.705Z,100
2022-10-24T10:32:22.426Z,100
2022-10-24T10:33:24.218Z,100
2022-10-24T10:34:25.885Z,100
2022-10-24T10:35:27.631Z,100
2022-10-24T10:36:29.365Z,100
2022-10-24T10:37:31.104Z,100
2022-10-24T10:38:32.826Z,100
2022-10-24T10:39:34.570Z,100
2022-10-24T10:40:36.311Z,100
2022-10-24T10:41:38.025Z,100
2022-10-24T10:42:39.760Z,100
2022-10-24T10:43:41.504Z,100
2022-10-24T10:44:43.235Z,100
2022-10-24T10:45:45.092Z,96.93
2022-10-24T10:46:46.710Z,99.38
2022-10-24T10:47:48.439Z,99.45
2022-10-24T10:48:50.193Z,95.58
2022-10-24T10:49:51.922Z,99.74
2022-10-24T10:50:53.659Z,100
2022-10-24T10:51:55.411Z,100
2022-10-24T10:52:57.113Z,100
2022-10-24T10:53:58.872Z,98.39
2022-10-24T10:55:00.587Z,96.42
2022-10-24T10:56:02.329Z,99.04
2022-10-24T10:57:04.056Z,99.61
2022-10-24T10:58:08.698Z,100
2022-10-24T10:59:07.527Z,100
2022-10-24T11:00:09.268Z,100
2022-10-24T11:01:11.241Z,98.49
2022-10-24T11:02:12.884Z,98.31
2022-10-24T11:03:14.462Z,96.16
2022-10-24T11:04:16.204Z,90.81
2022-10-24T11:05:17.935Z,94.75
2022-10-24T11:06:19.670Z,92.42
2022-10-24T11:07:21.409Z,93.13
2022-10-24T11:08:23.142Z,92.51
2022-10-24T11:09:24.859Z,92.14
2022-10-24T11:10:26.601Z,88.04
2022-10-24T11:11:28.345Z,95.4
2022-10-24T11:12:30.077Z,93.32
2022-10-24T11:13:34.167Z,88.26
2022-10-24T11:14:33.545Z,86.91
2022-10-24T11:15:35.275Z,86.86
2022-10-24T11:16:37.027Z,86.83
2022-10-24T11:17:38.798Z,88.2
2022-10-24T11:18:40.466Z,88.02
2022-10-24T11:19:42.211Z,90.31
2022-10-24T11:20:43.939Z,86.15
2022-10-24T11:21:45.705Z,89
2022-10-24T11:22:47.432Z,83.65
2022-10-24T11:23:49.147Z,84.91
2022-10-24T11:24:50.873Z,84.14
2022-10-24T11:25:52.631Z,82.55
2022-10-24T11:26:54.373Z,85.83
2022-10-24T11:27:56.089Z,82.06
2022-10-24T11:28:57.846Z,86.37
2022-10-24T11:29:59.566Z,81.63
2022-10-24T11:31:01.334Z,82.14
2022-10-24T11:33:04.788Z,81.14
2022-10-24T11:34:06.501Z,82.6
2022-10-24T11:35:08.227Z,86.89
2022-10-24T11:36:09.972Z,85.41
2022-10-24T11:37:11.702Z,86.06
2022-10-24T11:38:13.445Z,86.59
2022-10-24T11:39:15.185Z,85.05
2022-10-24T11:40:17.015Z,81.48
2022-10-24T11:41:18.642Z,81.7
2022-10-24T11:42:20.402Z,82.04
2022-10-24T11:43:22.112Z,81.17
2022-10-24T11:44:23.861Z,79.93
2022-10-24T11:45:25.576Z,82.55
2022-10-24T11:46:27.316Z,82.55
2022-10-24T11:47:29.045Z,83.09
2022-10-24T11:48:30.789Z,82.64
2022-10-24T11:49:32.500Z,84.58
2022-10-24T11:50:34.261Z,80.01
2022-10-24T11:51:35.993Z,86.13
2022-10-24T11:52:37.719Z,89.83
2022-10-24T11:53:39.453Z,85.8
2022-10-24T11:54:41.192Z,84.93
2022-10-24T11:55:42.927Z,86.42
2022-10-24T11:56:44.647Z,84.17
2022-10-24T11:57:46.718Z,85
2022-10-24T11:58:48.113Z,79.74
2022-10-24T11:59:50.319Z,81.51
2022-10-24T12:00:51.598Z,79.69
2022-10-24T12:01:53.324Z,83.57
2022-10-24T12:02:55.123Z,83.11
2022-10-24T12:03:56.784Z,83.42
2022-10-24T12:04:58.536Z,79.36
2022-10-24T12:06:00.260Z,77.27
2022-10-24T12:07:01.985Z,75.05
2022-10-24T12:08:03.726Z,76.92
2022-10-24T12:09:05.504Z,79.02
2022-10-24T12:10:07.209Z,76.99
2022-10-24T12:11:08.935Z,74.33
2022-10-24T12:12:10.669Z,72.1
2022-10-24T12:13:12.396Z,71.12
2022-10-24T12:14:14.129Z,74.18
2022-10-24T12:15:15.881Z,76.42
2022-10-24T12:16:17.604Z,76.29
2022-10-24T12:17:19.401Z,71.24
2022-10-24T12:18:21.075Z,73.77
2022-10-24T12:19:22.808Z,75.81
2022-10-24T12:20:24.543Z,75.35
2022-10-24T12:21:26.380Z,75.35
2022-10-24T12:22:28.057Z,75.37
2022-10-24T12:23:29.747Z,74.57
2022-10-24T12:24:31.476Z,77.32
2022-10-24T12:25:33.222Z,76
2022-10-24T12:26:34.940Z,76.37
2022-10-24T12:27:36.683Z,73.64
2022-10-24T12:28:38.410Z,72.96
2022-10-24T12:29:40.144Z,73.7
2022-10-24T12:30:42.001Z,76.14
2022-10-24T12:31:43.618Z,75.36
2022-10-24T12:32:45.598Z,73.7
2022-10-24T12:33:47.086Z,76.83
2022-10-24T12:34:49.533Z,76.04
2022-10-24T12:35:50.550Z,74.82
2022-10-24T12:36:52.288Z,72.58
2022-10-24T12:37:54.010Z,72.62
2022-10-24T12:38:55.741Z,73.25
2022-10-24T12:39:58.494Z,76.09
2022-10-24T12:40:59.250Z,76.26
2022-10-24T12:42:00.953Z,78.5
2022-10-24T12:43:02.696Z,78.09
2022-10-24T12:44:04.431Z,71.95
2022-10-24T12:45:06.214Z,74.52
2022-10-24T12:46:12.927Z,75.85
2022-10-24T12:47:09.636Z,75.48
2022-10-24T12:48:11.370Z,77.35
2022-10-24T12:49:13.109Z,76.83
2022-10-24T12:50:14.830Z,74.89
2022-10-24T12:51:16.561Z,74.61
2022-10-24T12:52:18.302Z,72.93
2022-10-24T12:53:20.045Z,71.25
2022-10-24T12:54:21.763Z,70.36
2022-10-24T12:55:23.520Z,72.56
2022-10-24T12:56:25.248Z,68.86
2022-10-24T12:57:26.987Z,71.88
2022-10-24T12:58:28.712Z,70.42
2022-10-24T12:59:30.446Z,69.51
2022-10-24T13:00:32.178Z,68.51
2022-10-24T13:01:34.130Z,70.44
2022-10-24T13:02:35.708Z,68.51
2022-10-24T13:03:37.374Z,70.74
2022-10-24T13:04:39.181Z,72.88
2022-10-24T13:05:40.835Z,70.53
2022-10-24T13:06:45.453Z,69.23
2022-10-24T13:07:48.345Z,68.41
2022-10-24T13:08:46.072Z,69.11
2022-10-24T13:09:47.783Z,69.26
2022-10-24T13:10:49.341Z,69.73
2022-10-24T13:11:54.100Z,72.08
2022-10-24T13:12:52.800Z,72.5
2022-10-24T13:13:55.117Z,72.53
2022-10-24T13:14:56.267Z,68.92
2022-10-24T13:15:58.010Z,67.61
2022-10-24T13:16:59.738Z,67.11
2022-10-24T13:18:01.481Z,66.92
2022-10-24T13:19:03.199Z,67.91
2022-10-24T13:20:04.942Z,68.4
2022-10-24T13:21:08.002Z,69.26
2022-10-24T13:22:08.403Z,67.29
2022-10-24T13:23:10.189Z,66.16
2022-10-24T13:24:11.884Z,68.01
2022-10-24T13:25:13.765Z,67.73
2022-10-24T13:26:15.349Z,67.59
2022-10-24T13:27:17.077Z,69.18
2022-10-24T13:28:18.814Z,69.13
2022-10-24T13:29:20.542Z,68.16
2022-10-24T13:30:22.282Z,70.08
2022-10-24T13:31:24.016Z,70.46
2022-10-24T13:32:25.749Z,70.05
2022-10-24T13:33:27.467Z,70.94
2022-10-24T13:34:29.211Z,70.79
2022-10-24T13:35:30.966Z,70.94
2022-10-24T13:36:32.698Z,72.49
2022-10-24T13:37:34.435Z,70.68
2022-10-24T13:38:36.163Z,72.41
2022-10-24T13:39:40.337Z,72.67
2022-10-24T13:40:39.628Z,74.64
2022-10-24T13:41:41.343Z,73.99
2022-10-24T13:42:43.121Z,73.34
2022-10-24T13:43:44.829Z,76.56
2022-10-24T13:44:46.566Z,76.7
2022-10-24T13:45:48.296Z,78.46
2022-10-24T13:46:53.409Z,77.34
2022-10-24T13:47:51.770Z,77.94
2022-10-24T13:48:53.498Z,78.5
2022-10-24T13:49:55.241Z,78.07
2022-10-24T13:50:56.971Z,78.62
2022-10-24T13:51:58.708Z,77.73
2022-10-24T13:53:00.435Z,76.2
2022-10-24T13:54:02.172Z,76.04
2022-10-24T13:55:03.961Z,77.83
2022-10-24T13:56:05.649Z,76.83
2022-10-24T13:57:07.378Z,78.39
2022-10-24T13:58:09.110Z,79.15
2022-10-24T13:59:10.846Z,80.2
2022-10-24T14:00:12.600Z,80.11
2022-10-24T14:01:14.418Z,78.71
2022-10-24T14:02:16.066Z,78.08
2022-10-24T14:03:17.847Z,79.84
2022-10-24T14:04:19.539Z,81.51
2022-10-24T14:05:21.267Z,82.46